Time;durP1;ratioP1;P1;durP2;ratioP2;P2;SDS_P1;SDS_P2;PMS_P1;PMS_P2;Temp;Humidity;BMP_temperature;BMP_pressure;BME280_temperature;BME280_humidity;BME280_pressure;Samples;Min_cycle;Max_cycle;Signal;HPM_P1;HPM_P2
2023/05/20 00:01:30;;;;;;;;;;;14.00;91.10;;;;;;4836597;29;19993;-96
2023/05/20 00:04:31;;;;;;;;;;;14.00;91.10;;;;;;4804200;29;19918;-96
2023/05/20 00:07:41;;;;;;;;;;;;;;;;;;;;;
2023/05/20 00:10:45;;;;;;;;;;;14.00;91.10;;;;;;4793506;29;20495;-96
2023/05/20 00:13:56;;;;;;;;;;;14.00;91.10;;;;;;4817294;29;19965;-96
2023/05/20 00:16:49;;;;;;;;;;;14.00;91.20;;;;;;4839818;29;19967;-96
2023/05/20 00:20:04;;;;;;;;;;;14.10;91.20;;;;;;4833171;29;19913;-96
2023/05/20 00:22:53;;;;;;;;;;;14.00;91.20;;;;;;4846640;29;19897;-96
2023/05/20 00:25:50;;;;;;;;;;;14.00;91.20;;;;;;4836126;29;20624;-96
2023/05/20 00:34:41;;;;;;;;;;;14.00;91.30;;;;;;4875426;29;20423;-96
2023/05/20 00:37:32;;;;;;;;;;;14.00;91.30;;;;;;4900953;29;19951;-96
2023/05/20 00:40:20;;;;;;;;;;;14.00;91.30;;;;;;4861760;29;19913;-96
2023/05/20 00:43:11;;;;;;;;;;;14.00;91.30;;;;;;4973990;28;19932;-96
2023/05/20 00:46:11;;;;;;;;;;;14.00;91.30;;;;;;4973143;28;19910;-96
2023/05/20 00:52:35;;;;;;;;;;;;;;;;;;;;;
2023/05/20 00:58:40;;;;;;;;;;;14.00;91.40;;;;;;4960620;29;19970;-96
2023/05/20 01:01:33;;;;;;;;;;;14.00;91.40;;;;;;4982313;28;19990;-96
2023/05/20 01:04:46;;;;;;;;;;;14.00;91.50;;;;;;4981364;28;19921;-96
2023/05/20 01:07:47;;;;;;;;;;;14.00;91.50;;;;;;4982857;28;20308;-96
2023/05/20 01:13:52;;;;;;;;;;;14.00;91.50;;;;;;5020212;28;19932;-96
2023/05/20 01:16:48;;;;;;;;;;;14.00;91.50;;;;;;4999760;28;19967;-96
2023/05/20 01:19:48;;;;;;;;;;;14.00;91.60;;;;;;5022568;28;19909;-96
2023/05/20 01:22:36;;;;;;;;;;;14.00;91.60;;;;;;5014915;28;19913;-96
2023/05/20 01:25:34;;;;;;;;;;;;;;;;;;;;;
2023/05/20 01:28:49;;;;;;;;;;;;;;;;;;;;;
2023/05/20 01:31:45;;;;;;;;;;;14.00;91.60;;;;;;4998973;28;19910;-96
2023/05/20 01:34:48;;;;;;;;;;;14.00;91.60;;;;;;4982307;28;19905;-96
2023/05/20 01:38:02;;;;;;;;;;;14.00;91.60;;;;;;5019120;28;19921;-95
2023/05/20 01:44:18;;;;;;;;;;;14.00;91.70;;;;;;5005918;28;19921;-96
2023/05/20 01:47:07;;;;;;;;;;;14.00;91.70;;;;;;4987309;28;19910;-96
2023/05/20 01:49:54;;;;;;;;;;;14.00;91.70;;;;;;4976941;28;20405;-96
2023/05/20 01:52:48;;;;;;;;;;;13.90;91.70;;;;;;4955036;28;19917;-96
2023/05/20 01:55:38;;;;;;;;;;;13.90;91.70;;;;;;4956419;28;19958;-96
2023/05/20 01:58:52;;;;;;;;;;;13.90;91.70;;;;;;4970808;28;19910;-96
2023/05/20 02:01:44;;;;;;;;;;;13.90;91.70;;;;;;4966626;28;19960;-96
2023/05/20 02:04:35;;;;;;;;;;;13.90;91.70;;;;;;4960348;28;19953;-96
2023/05/20 02:07:24;;;;;;;;;;;14.00;91.80;;;;;;4964582;28;19933;-96
2023/05/20 02:10:13;;;;;;;;;;;14.00;91.70;;;;;;4960735;28;19911;-96
2023/05/20 02:12:59;;;;;;;;;;;14.00;91.70;;;;;;4969761;28;20013;-96
2023/05/20 02:16:07;;;;;;;;;;;13.90;91.80;;;;;;4981754;28;19918;-95
2023/05/20 02:18:57;;;;;;;;;;;13.90;91.80;;;;;;4971013;28;19910;-96
2023/05/20 02:22:03;;;;;;;;;;;14.00;91.80;;;;;;4972608;28;19957;-96
2023/05/20 02:25:15;;;;;;;;;;;13.90;91.80;;;;;;4987306;28;19919;-96
2023/05/20 02:28:09;;;;;;;;;;;13.90;91.80;;;;;;5010595;28;19916;-96
2023/05/20 02:30:58;;;;;;;;;;;13.90;91.80;;;;;;5017713;28;19909;-96
2023/05/20 02:34:11;;;;;;;;;;;;;;;;;;;;;
2023/05/20 02:37:07;;;;;;;;;;;13.90;91.90;;;;;;4977840;28;20358;-96
2023/05/20 02:39:59;;;;;;;;;;;13.90;91.90;;;;;;4979291;28;19910;-96
2023/05/20 02:42:47;;;;;;;;;;;13.90;91.90;;;;;;4973136;28;19917;-96
2023/05/20 02:45:57;;;;;;;;;;;;;;;;;;;;;
2023/05/20 02:48:53;;;;;;;;;;;13.90;91.90;;;;;;4979847;28;19910;-96
2023/05/20 02:51:35;;;;;;;;;;;14.00;91.90;;;;;;5017395;28;19913;-96
2023/05/20 02:54:22;;;;;;;;;;;13.90;91.90;;;;;;5000408;28;19913;-96
2023/05/20 02:57:12;;;;;;;;;;;14.00;91.90;;;;;;5023596;28;20008;-96
2023/05/20 03:00:18;;;;;;;;;;;13.90;91.80;;;;;;5025738;28;19909;-96
2023/05/20 03:03:04;;;;;;;;;;;13.90;91.90;;;;;;4994495;28;19909;-96
2023/05/20 03:05:50;;;;;;;;;;;13.90;91.90;;;;;;5037499;28;19909;-96
2023/05/20 03:08:39;;;;;;;;;;;13.90;91.90;;;;;;5035392;28;19909;-96
2023/05/20 03:11:25;;;;;;;;;;;13.90;91.90;;;;;;5028093;28;19916;-96
2023/05/20 03:14:13;;;;;;;;;;;13.90;91.90;;;;;;5043813;28;19956;-96
2023/05/20 03:17:08;;;;;;;;;;;13.90;92.20;;;;;;5041852;28;19920;-96
2023/05/20 03:20:16;;;;;;;;;;;;;;;;;;;;;
2023/05/20 03:23:08;;;;;;;;;;;13.90;91.90;;;;;;5051556;28;19913;-96
2023/05/20 03:25:54;;;;;;;;;;;13.90;91.90;;;;;;5024074;28;19960;-96
2023/05/20 03:28:41;;;;;;;;;;;13.90;91.90;;;;;;5046627;28;19932;-96
2023/05/20 03:31:40;;;;;;;;;;;13.90;91.90;;;;;;5051110;28;19956;-96
2023/05/20 03:34:38;;;;;;;;;;;13.90;91.80;;;;;;5048008;28;19916;-96
2023/05/20 03:37:32;;;;;;;;;;;14.00;91.90;;;;;;5045537;28;19960;-96
2023/05/20 03:40:35;;;;;;;;;;;13.90;92.00;;;;;;5056351;28;19909;-96
2023/05/20 03:43:23;;;;;;;;;;;13.90;92.00;;;;;;5036807;28;19948;-96
2023/05/20 03:46:12;;;;;;;;;;;13.90;91.90;;;;;;5037822;28;20385;-95
2023/05/20 03:49:17;;;;;;;;;;;13.90;92.00;;;;;;5037821;28;19971;-96
2023/05/20 03:52:04;;;;;;;;;;;13.90;92.00;;;;;;5024460;28;19913;-96
2023/05/20 03:54:53;;;;;;;;;;;13.90;91.90;;;;;;5034500;28;19909;-95
2023/05/20 03:57:45;;;;;;;;;;;13.90;91.90;;;;;;5045713;28;20007;-96
2023/05/20 04:00:50;;;;;;;;;;;14.00;91.90;;;;;;5041822;28;19912;-96
2023/05/20 04:03:41;;;;;;;;;;;13.90;91.90;;;;;;5030452;28;19995;-96
2023/05/20 04:06:27;;;;;;;;;;;13.90;91.80;;;;;;5034487;28;19919;-96
2023/05/20 04:09:18;;;;;;;;;;;13.90;91.90;;;;;;5048228;28;19955;-96
2023/05/20 04:12:12;;;;;;;;;;;13.90;91.90;;;;;;5040053;28;19915;-96
2023/05/20 04:15:09;;;;;;;;;;;13.90;92.00;;;;;;5036193;28;19913;-96
2023/05/20 04:18:02;;;;;;;;;;;13.90;92.00;;;;;;5047454;28;19964;-96
2023/05/20 04:20:59;;;;;;;;;;;;;;;;;;;;;
2023/05/20 04:23:56;;;;;;;;;;;13.90;91.90;;;;;;5052471;28;19995;-96
2023/05/20 04:26:42;;;;;;;;;;;13.90;92.00;;;;;;5030249;28;19956;-96
2023/05/20 04:29:37;;;;;;;;;;;13.90;92.00;;;;;;5045663;28;19915;-96
2023/05/20 04:32:40;;;;;;;;;;;13.90;92.00;;;;;;5043307;28;19909;-96
2023/05/20 04:35:29;;;;;;;;;;;13.90;92.00;;;;;;5029432;28;19909;-96
2023/05/20 04:38:20;;;;;;;;;;;13.90;92.00;;;;;;5049360;28;19970;-96
2023/05/20 04:41:28;;;;;;;;;;;;;;;;;;;;;
2023/05/20 04:44:37;;;;;;;;;;;;;;;;;;;;;
2023/05/20 04:50:44;;;;;;;;;;;13.90;91.90;;;;;;5011373;28;21040;-96
2023/05/20 05:00:08;;;;;;;;;;;13.90;92.00;;;;;;4936907;29;19911;-96
2023/05/20 05:02:55;;;;;;;;;;;13.90;92.10;;;;;;4936034;29;19918;-96
2023/05/20 05:05:55;;;;;;;;;;;13.90;92.10;;;;;;4919292;29;19959;-96
2023/05/20 05:12:01;;;;;;;;;;;13.90;92.10;;;;;;4870842;29;19975;-96
2023/05/20 05:14:52;;;;;;;;;;;13.90;92.30;;;;;;4878774;29;19915;-96
2023/05/20 05:17:44;;;;;;;;;;;14.20;92.20;;;;;;4875912;29;19947;-96
2023/05/20 05:20:46;;;;;;;;;;;;;;;;;;;;;
2023/05/20 05:23:49;;;;;;;;;;;13.90;92.10;;;;;;4876957;29;20003;-96
2023/05/20 05:26:52;;;;;;;;;;;13.90;92.00;;;;;;4878962;29;19995;-96
2023/05/20 05:29:50;;;;;;;;;;;13.90;91.90;;;;;;4915035;29;20000;-96
2023/05/20 05:32:49;;;;;;;;;;;13.90;91.90;;;;;;4917878;29;19923;-96
2023/05/20 05:36:01;;;;;;;;;;;13.90;92.00;;;;;;4949467;29;19926;-96
2023/05/20 05:38:58;;;;;;;;;;;13.90;91.90;;;;;;4950977;28;19918;-96
2023/05/20 05:41:45;;;;;;;;;;;13.90;91.90;;;;;;4950168;29;19910;-96
2023/05/20 05:44:36;;;;;;;;;;;14.20;92.00;;;;;;4954664;29;19915;-96
2023/05/20 05:47:31;;;;;;;;;;;13.90;92.10;;;;;;4954279;29;19911;-96
2023/05/20 05:50:37;;;;;;;;;;;13.90;92.00;;;;;;5035838;28;19916;-96
2023/05/20 05:53:23;;;;;;;;;;;13.90;92.00;;;;;;5012136;28;19910;-96
2023/05/20 05:56:17;;;;;;;;;;;13.90;92.30;;;;;;5022032;28;19913;-96
2023/05/20 05:59:09;;;;;;;;;;;13.90;92.30;;;;;;5039757;28;19909;-96
2023/05/20 06:02:23;;;;;;;;;;;13.90;92.30;;;;;;5030639;28;19915;-96
2023/05/20 06:05:03;;;;;;;;;;;13.90;92.40;;;;;;5030374;28;20329;-96
2023/05/20 06:07:54;;;;;;;;;;;13.90;92.40;;;;;;5001249;28;19936;-96
2023/05/20 06:11:15;;;;;;;;;;;13.90;92.30;;;;;;5038062;28;19987;-96
2023/05/20 06:17:17;;;;;;;;;;;14.10;92.60;;;;;;4995749;28;20442;-96
2023/05/20 06:20:15;;;;;;;;;;;13.90;92.50;;;;;;4993186;28;20008;-96
2023/05/20 06:23:32;;;;;;;;;;;13.90;92.30;;;;;;4957288;29;19914;-96
2023/05/20 06:29:54;;;;;;;;;;;;;;;;;;;;;
2023/05/20 06:32:54;;;;;;;;;;;13.90;92.50;;;;;;4952715;28;19973;-96
2023/05/20 06:36:19;;;;;;;;;;;;;;;;;;;;;
2023/05/20 06:39:20;;;;;;;;;;;13.90;92.50;;;;;;4854631;29;19913;-96
2023/05/20 06:42:21;;;;;;;;;;;13.90;92.30;;;;;;4857597;29;19913;-96
2023/05/20 06:44:54;;;;;;;;;;;14.20;92.40;;;;;;4860227;29;19963;-96
2023/05/20 06:48:00;;;;;;;;;;;;;;;;;;;;;
2023/05/20 06:51:06;;;;;;;;;;;;;;;;;;;;;
2023/05/20 06:54:04;;;;;;;;;;;13.90;92.50;;;;;;4830763;29;19913;-96
2023/05/20 06:57:00;;;;;;;;;;;13.90;92.50;;;;;;4831330;29;19984;-96
2023/05/20 07:00:14;;;;;;;;;;;13.90;92.30;;;;;;4828814;29;19920;-96
2023/05/20 07:06:13;;;;;;;;;;;13.90;92.50;;;;;;4788748;30;19990;-96
2023/05/20 07:12:13;;;;;;;;;;;13.90;92.40;;;;;;4801277;29;19913;-96
2023/05/20 07:15:21;;;;;;;;;;;;;;;;;;;;;
2023/05/20 07:18:27;;;;;;;;;;;13.90;92.50;;;;;;4903105;29;20280;-96
2023/05/20 07:24:43;;;;;;;;;;;;;;;;;;;;;
2023/05/20 07:27:48;;;;;;;;;;;13.90;92.60;;;;;;4899082;29;19968;-96
2023/05/20 07:30:50;;;;;;;;;;;13.90;92.60;;;;;;4892128;29;20416;-96
2023/05/20 07:38:52;;;;;;;;;;;14.00;92.60;;;;;;5081767;22;19932;-96
2023/05/20 07:42:06;;;;;;;;;;;14.10;92.70;;;;;;5063068;28;20360;-96
2023/05/20 07:45:11;;;;;;;;;;;14.00;92.50;;;;;;5071340;28;19954;-96
2023/05/20 07:48:07;;;;;;;;;;;14.00;92.50;;;;;;5060525;28;19940;-96
2023/05/20 07:51:05;;;;;;;;;;;14.00;92.50;;;;;;5067225;28;19912;-96
2023/05/20 07:53:51;;;;;;;;;;;14.00;92.50;;;;;;5072829;28;19909;-96
2023/05/20 07:56:45;;;;;;;;;;;14.00;92.50;;;;;;5068436;28;19916;-96
2023/05/20 07:59:32;;;;;;;;;;;14.00;92.50;;;;;;5076679;28;19998;-96
2023/05/20 08:02:21;;;;;;;;;;;14.00;92.60;;;;;;5058385;28;19909;-96
2023/05/20 08:05:09;;;;;;;;;;;14.00;92.60;;;;;;5068905;28;19942;-96
2023/05/20 08:07:56;;;;;;;;;;;14.10;92.50;;;;;;5058315;28;20003;-96
2023/05/20 08:10:35;;;;;;;;;;;14.00;92.40;;;;;;5062807;28;19913;-96
2023/05/20 08:13:25;;;;;;;;;;;14.30;92.40;;;;;;5061551;28;19966;-96
2023/05/20 08:16:12;;;;;;;;;;;14.00;92.40;;;;;;5076651;28;19971;-96
2023/05/20 08:19:18;;;;;;;;;;;14.00;92.20;;;;;;5070276;28;19908;-96
2023/05/20 08:21:47;;;;;;;;;;;14.10;92.20;;;;;;5064896;28;19909;-95
2023/05/20 08:24:33;;;;;;;;;;;14.10;92.20;;;;;;5049699;28;19913;-95
2023/05/20 08:27:36;;;;;;;;;;;14.10;92.30;;;;;;5067987;28;20349;-96
2023/05/20 08:30:39;;;;;;;;;;;14.10;92.30;;;;;;5069220;28;19909;-96
2023/05/20 08:33:25;;;;;;;;;;;14.10;92.20;;;;;;5065915;28;19964;-96
2023/05/20 08:36:14;;;;;;;;;;;14.10;92.20;;;;;;5064585;28;19921;-96
2023/05/20 08:39:03;;;;;;;;;;;14.10;92.20;;;;;;5069509;28;20438;-96
2023/05/20 08:42:12;;;;;;;;;;;;;;;;;;;;;
2023/05/20 08:45:26;;;;;;;;;;;14.20;92.20;;;;;;5071985;28;20317;-96
2023/05/20 08:51:31;;;;;;;;;;;14.20;92.20;;;;;;5068224;28;19908;-96
2023/05/20 08:54:38;;;;;;;;;;;14.20;92.20;;;;;;5064204;28;19909;-96
2023/05/20 08:57:27;;;;;;;;;;;14.20;92.20;;;;;;5063063;28;19913;-96
2023/05/20 09:00:17;;;;;;;;;;;14.20;92.20;;;;;;5067511;28;19916;-96
2023/05/20 09:03:14;;;;;;;;;;;14.20;92.20;;;;;;5061184;28;19952;-96
2023/05/20 09:06:11;;;;;;;;;;;14.30;92.20;;;;;;5056892;28;19971;-96
2023/05/20 09:19:53;;;;;;;;;;;;;;;;;;;;;
2023/05/20 09:35:53;;;;;;;;;;;14.60;92.30;;;;;;5058353;28;19932;-96
2023/05/20 09:56:52;;;;;;;;;;;15.00;92.20;;;;;;5043933;28;20367;-96
2023/05/20 09:59:41;;;;;;;;;;;15.00;92.20;;;;;;5033567;28;19937;-96
2023/05/20 10:59:08;;;;;;;;;;;15.30;91.90;;;;;;1440445;22;20182;-96
2023/05/20 11:22:32;;;;;;;;;;;15.30;92.10;;;;;;5156100;23;19927;-96
2023/05/20 11:25:27;;;;;;;;;;;15.20;92.00;;;;;;5133511;28;19960;-96
2023/05/20 11:31:15;;;;;;;;;;;15.20;92.10;;;;;;5281399;22;19908;-96
2023/05/20 11:34:09;;;;;;;;;;;15.20;92.10;;;;;;5136284;27;19936;-96
2023/05/20 11:36:55;;;;;;;;;;;15.20;92.10;;;;;;5077641;28;19939;-96
2023/05/20 13:11:32;;;;;;;;;;;15.20;92.70;;;;;;6147237;22;19941;-96
2023/05/20 16:02:39;;;;;;;;;;;15.30;93.10;;;;;;5448197;23;19960;-95
2023/05/20 16:05:25;;;;;;;;;;;15.40;93.20;;;;;;5034381;28;19909;-96
2023/05/20 16:08:13;;;;;;;;;;;15.30;93.10;;;;;;5025196;28;19900;-96
2023/05/20 16:11:03;;;;;;;;;;;15.30;93.00;;;;;;5050541;28;19941;-96
2023/05/20 16:13:48;;;;;;;;;;;15.40;93.10;;;;;;5030368;28;19920;-96
2023/05/20 16:19:48;;;;;;;;;;;15.30;93.10;;;;;;5009960;28;20022;-96
2023/05/20 16:22:34;;;;;;;;;;;15.40;93.10;;;;;;4989718;28;19941;-96
2023/05/20 16:25:35;;;;;;;;;;;15.40;93.10;;;;;;4995266;28;20009;-96
2023/05/20 16:28:36;;;;;;;;;;;15.40;93.20;;;;;;5001691;28;19985;-96
2023/05/20 16:31:30;;;;;;;;;;;15.40;93.20;;;;;;4986612;28;19980;-96
2023/05/20 16:34:16;;;;;;;;;;;15.30;93.10;;;;;;4954187;29;19942;-96
